Time;durP1;ratioP1;P1;durP2;ratioP2;P2;SDS_P1;SDS_P2;PMS_P1;PMS_P2;Temp;Humidity;BMP_temperature;BMP_pressure;BME280_temperature;BME280_humidity;BME280_pressure;Samples;Min_cycle;Max_cycle;Signal;HPM_P1;HPM_P2
2023/04/29 00:00:29;;;;;;;;;;;;;;;9.16;100.00;101428.19;5062046;28;20560;-66
2023/04/29 00:02:54;;;;;;;;;;;;;;;9.14;100.00;101430.16;5064343;28;19936;-67
2023/04/29 00:05:20;;;;;;;;;;;;;;;9.13;100.00;101431.13;5065744;28;20339;-67
2023/04/29 00:07:45;;;;;;;;;;;;;;;9.11;100.00;101434.91;5063470;28;19916;-67
2023/04/29 00:10:13;;;;;;;;;;;;;;;9.08;100.00;101433.38;5056577;28;19924;-67
2023/04/29 00:12:39;;;;;;;;;;;;;;;9.10;100.00;101433.25;5071716;28;19978;-67
2023/04/29 00:15:05;;;;;;;;;;;;;;;9.06;100.00;101435.34;5072924;28;19951;-67
2023/04/29 00:17:30;;;;;;;;;;;;;;;9.08;100.00;101432.56;5056636;28;19942;-67
2023/04/29 00:19:55;;;;;;;;;;;;;;;9.08;100.00;101433.38;5058637;28;19991;-67
2023/04/29 00:22:21;;;;;;;;;;;;;;;9.06;100.00;101432.69;5051098;28;19917;-67
2023/04/29 00:24:46;;;;;;;;;;;;;;;9.06;100.00;101439.81;5055881;28;19979;-67
2023/04/29 00:27:11;;;;;;;;;;;;;;;9.08;100.00;101433.38;5059541;28;20406;-67
2023/04/29 00:29:37;;;;;;;;;;;;;;;9.07;100.00;101442.31;5067163;28;19917;-68
2023/04/29 00:32:03;;;;;;;;;;;;;;;9.06;100.00;101448.59;5055147;28;19913;-67
2023/04/29 00:34:28;;;;;;;;;;;;;;;9.07;100.00;101446.78;5057226;28;19952;-67
2023/04/29 00:36:53;;;;;;;;;;;;;;;9.08;100.00;101449.28;5052015;28;19916;-67
2023/04/29 00:39:18;;;;;;;;;;;;;;;9.09;100.00;101450.13;5059852;28;19917;-67
2023/04/29 00:41:43;;;;;;;;;;;;;;;9.08;100.00;101449.28;5054420;28;20389;-67
2023/04/29 00:44:09;;;;;;;;;;;;;;;9.07;100.00;101444.13;5058224;28;19970;-68
2023/04/29 00:46:34;;;;;;;;;;;;;;;9.05;100.00;101456.69;5074967;28;19913;-68
2023/04/29 00:48:59;;;;;;;;;;;;;;;9.02;100.00;101449.88;5059570;28;19975;-68
2023/04/29 00:51:25;;;;;;;;;;;;;;;9.02;100.00;101464.94;5061097;28;20913;-67
2023/04/29 00:53:50;;;;;;;;;;;;;;;8.97;100.00;101460.91;5054804;28;20005;-67
2023/04/29 00:56:16;;;;;;;;;;;;;;;8.92;100.00;101459.66;5054184;28;20055;-68
2023/04/29 00:58:48;;;;;;;;;;;;;;;8.88;100.00;101460.91;5053598;28;20302;-67
2023/04/29 01:01:13;;;;;;;;;;;;;;;8.87;100.00;101462.72;5055347;28;20398;-67
2023/04/29 01:03:39;;;;;;;;;;;;;;;8.85;100.00;101461.22;5054029;28;20010;-67
2023/04/29 01:06:23;;;;;;;;;;;;;;;8.85;100.00;101466.50;5053027;28;19925;-68
2023/04/29 01:09:07;;;;;;;;;;;;;;;8.84;100.00;101473.63;5053549;28;19959;-67
2023/04/29 01:11:38;;;;;;;;;;;;;;;8.84;100.00;101476.28;5053801;28;19932;-67
2023/04/29 01:14:04;;;;;;;;;;;;;;;8.85;100.00;101470.00;5054739;28;19916;-67
2023/04/29 01:16:33;;;;;;;;;;;;;;;8.87;100.00;101475.16;5060864;28;19920;-67
2023/04/29 01:19:00;;;;;;;;;;;;;;;8.88;100.00;101480.28;5064318;28;19921;-67
2023/04/29 01:21:27;;;;;;;;;;;;;;;8.89;100.00;101483.78;5063145;28;19924;-67
2023/04/29 01:23:55;;;;;;;;;;;;;;;8.89;100.00;101483.78;5063821;28;19923;-67
2023/04/29 01:26:21;;;;;;;;;;;;;;;8.90;100.00;101482.81;5055258;28;19917;-67
2023/04/29 01:28:46;;;;;;;;;;;;;;;8.92;100.00;101488.78;5062652;28;20434;-67
2023/04/29 01:31:17;;;;;;;;;;;;;;;8.93;100.00;101482.50;5057454;28;19920;-67
2023/04/29 01:33:42;;;;;;;;;;;;;;;8.93;100.00;101480.69;5054394;28;19912;-68
2023/04/29 01:36:23;;;;;;;;;;;;;;;8.95;100.00;101491.16;5057082;28;20278;-67
2023/04/29 01:39:07;;;;;;;;;;;;;;;8.95;100.00;101496.44;5062075;28;19981;-67
2023/04/29 01:41:38;;;;;;;;;;;;;;;8.96;100.00;101495.47;5052943;28;19967;-68
2023/04/29 01:44:04;;;;;;;;;;;;;;;8.94;100.00;101486.81;5063328;28;19923;-67
2023/04/29 01:46:30;;;;;;;;;;;;;;;8.96;100.00;101492.81;5050187;28;19916;-67
2023/04/29 01:48:55;;;;;;;;;;;;;;;8.96;100.00;101496.31;5055448;28;19959;-67
2023/04/29 01:51:20;;;;;;;;;;;;;;;8.96;100.00;101493.69;5056897;28;19919;-67
2023/04/29 01:53:46;;;;;;;;;;;;;;;8.99;100.00;101497.84;5058257;28;19942;-67
2023/04/29 01:56:11;;;;;;;;;;;;;;;9.00;100.00;101494.22;5060325;28;19917;-67
2023/04/29 01:58:36;;;;;;;;;;;;;;;9.00;100.00;101495.06;5064252;28;19917;-67
2023/04/29 02:01:01;;;;;;;;;;;;;;;9.01;100.00;101498.53;5055374;28;19928;-67
2023/04/29 02:03:26;;;;;;;;;;;;;;;9.00;100.00;101499.53;5050204;28;19955;-67
2023/04/29 02:05:51;;;;;;;;;;;;;;;9.00;100.00;101505.66;5063672;28;19924;-67
2023/04/29 02:08:17;;;;;;;;;;;;;;;8.98;100.00;101502.31;5062248;28;20026;-67
2023/04/29 02:10:50;;;;;;;;;;;;;;;8.98;100.00;101506.78;5061670;28;19921;-67
2023/04/29 02:13:15;;;;;;;;;;;;;;;8.97;100.00;101511.25;5056501;28;19935;-67
2023/04/29 02:15:41;;;;;;;;;;;;;;;8.96;100.00;101512.22;5055808;28;20401;-67
2023/04/29 02:18:06;;;;;;;;;;;;;;;8.95;100.00;101518.47;5056376;28;19999;-66
2023/04/29 02:20:31;;;;;;;;;;;;;;;8.92;100.00;101526.69;5059377;28;19973;-67
2023/04/29 02:22:56;;;;;;;;;;;;;;;8.91;100.00;101522.38;5060745;28;19922;-67
2023/04/29 02:25:21;;;;;;;;;;;;;;;8.91;100.00;101525.03;5052671;28;20011;-67
2023/04/29 02:27:46;;;;;;;;;;;;;;;8.90;100.00;101522.53;5058265;28;19970;-66
2023/04/29 02:30:12;;;;;;;;;;;;;;;8.90;100.00;101528.66;5058903;28;19912;-67
2023/04/29 02:32:38;;;;;;;;;;;;;;;8.91;100.00;101532.97;5059730;28;19928;-67
2023/04/29 02:35:03;;;;;;;;;;;;;;;8.92;100.00;101531.16;5060664;28;19974;-67
2023/04/29 02:37:28;;;;;;;;;;;;;;;8.91;100.00;101535.63;5064441;28;19921;-67
2023/04/29 02:39:54;;;;;;;;;;;;;;;8.90;100.00;101533.97;5070981;28;20396;-67
2023/04/29 02:42:19;;;;;;;;;;;;;;;8.91;100.00;101543.56;5061884;28;19913;-67
2023/04/29 02:44:44;;;;;;;;;;;;;;;8.92;100.00;101542.59;5060530;28;19924;-66
2023/04/29 02:47:09;;;;;;;;;;;;;;;8.92;100.00;101549.72;5058148;28;19920;-67
2023/04/29 02:49:35;;;;;;;;;;;;;;;8.93;100.00;101556.69;5064435;28;20329;-68
2023/04/29 02:52:00;;;;;;;;;;;;;;;8.94;100.00;101558.34;5065201;28;19999;-67
2023/04/29 02:54:25;;;;;;;;;;;;;;;8.93;100.00;101562.81;5057522;28;20015;-68
2023/04/29 02:56:50;;;;;;;;;;;;;;;8.92;100.00;101566.44;5065656;28;19917;-67
2023/04/29 02:59:15;;;;;;;;;;;;;;;8.93;100.00;101562.81;5065869;28;19955;-67
2023/04/29 03:01:42;;;;;;;;;;;;;;;8.94;100.00;101564.47;5056363;28;19939;-67
2023/04/29 03:04:07;;;;;;;;;;;;;;;8.95;100.00;101574.09;5065593;28;19913;-67
2023/04/29 03:06:32;;;;;;;;;;;;;;;8.96;100.00;101574.94;5057882;28;19920;-67
2023/04/29 03:08:58;;;;;;;;;;;;;;;8.95;100.00;101562.66;5062343;28;19920;-67
2023/04/29 03:11:26;;;;;;;;;;;;;;;8.94;100.00;101569.78;5059009;28;19923;-67
2023/04/29 03:13:51;;;;;;;;;;;;;;;8.94;100.00;101576.88;5064780;28;19916;-67
2023/04/29 03:16:16;;;;;;;;;;;;;;;8.93;100.00;101572.56;5054277;28;19935;-67
2023/04/29 03:18:44;;;;;;;;;;;;;;;8.92;100.00;101577.03;5065031;28;19960;-67
2023/04/29 03:21:10;;;;;;;;;;;;;;;8.92;100.00;101579.69;5063229;28;19958;-67
2023/04/29 03:23:35;;;;;;;;;;;;;;;8.94;100.00;101579.53;5068490;28;19952;-67
2023/04/29 03:26:00;;;;;;;;;;;;;;;8.95;100.00;101576.75;5069965;28;20301;-67
2023/04/29 03:28:26;;;;;;;;;;;;;;;8.97;100.00;101589.88;5062290;28;20379;-68
2023/04/29 03:30:51;;;;;;;;;;;;;;;8.99;100.00;101583.47;5058817;28;19924;-67
2023/04/29 03:33:16;;;;;;;;;;;;;;;8.99;100.00;101591.41;5066056;28;19920;-67
2023/04/29 03:35:41;;;;;;;;;;;;;;;8.99;100.00;101585.28;5055783;28;19920;-66
2023/04/29 03:38:06;;;;;;;;;;;;;;;8.98;100.00;101587.09;5061586;28;20575;-67
2023/04/29 03:40:31;;;;;;;;;;;;;;;8.97;100.00;101590.72;5061481;28;19966;-67
2023/04/29 03:42:57;;;;;;;;;;;;;;;8.97;100.00;101590.72;5056590;28;19928;-67
2023/04/29 03:45:22;;;;;;;;;;;;;;;8.97;100.00;101593.38;5061641;28;19916;-67
2023/04/29 03:47:48;;;;;;;;;;;;;;;8.97;100.00;101585.41;5068791;28;19923;-67
2023/04/29 03:50:13;;;;;;;;;;;;;;;8.98;100.00;101595.03;5063342;28;19916;-67
2023/04/29 03:52:38;;;;;;;;;;;;;;;8.97;100.00;101590.72;5061187;28;20278;-67
2023/04/29 03:55:03;;;;;;;;;;;;;;;8.97;100.00;101589.88;5068700;28;19930;-67
2023/04/29 03:57:29;;;;;;;;;;;;;;;8.96;100.00;101599.63;5064066;28;19922;-67
2023/04/29 03:59:54;;;;;;;;;;;;;;;8.97;100.00;101597.81;5063968;28;19997;-66
2023/04/29 04:02:19;;;;;;;;;;;;;;;8.98;100.00;101602.97;5068839;28;19916;-67
2023/04/29 04:04:44;;;;;;;;;;;;;;;8.98;100.00;101602.97;5064356;28;19917;-67
2023/04/29 04:07:10;;;;;;;;;;;;;;;8.99;100.00;101612.59;5064207;28;19942;-67
2023/04/29 04:09:35;;;;;;;;;;;;;;;9.01;100.00;101612.47;5051535;28;19921;-67
2023/04/29 04:12:01;;;;;;;;;;;;;;;9.00;100.00;101616.09;5050988;28;19917;-67
2023/04/29 04:14:26;;;;;;;;;;;;;;;9.01;100.00;101615.09;5056752;28;19932;-67
2023/04/29 04:16:51;;;;;;;;;;;;;;;9.01;100.00;101612.47;5061831;28;19931;-67
2023/04/29 04:19:16;;;;;;;;;;;;;;;9.02;100.00;101613.28;5067051;28;20400;-67
2023/04/29 04:21:42;;;;;;;;;;;;;;;9.00;100.00;101619.56;5058156;28;19917;-67
2023/04/29 04:24:07;;;;;;;;;;;;;;;9.01;100.00;101617.75;5059737;28;20005;-67
2023/04/29 04:26:32;;;;;;;;;;;;;;;9.00;100.00;101622.22;5054718;28;19913;-68
2023/04/29 04:28:57;;;;;;;;;;;;;;;9.03;100.00;101629.03;5058493;28;20032;-68
2023/04/29 04:31:22;;;;;;;;;;;;;;;9.03;100.00;101630.84;5058508;28;19917;-67
2023/04/29 04:33:48;;;;;;;;;;;;;;;9.02;100.00;101635.31;5059340;28;19947;-67
2023/04/29 04:36:13;;;;;;;;;;;;;;;9.02;100.00;101632.69;5061866;28;19928;-67
2023/04/29 04:38:38;;;;;;;;;;;;;;;9.04;100.00;101637.84;5057761;28;19912;-67
2023/04/29 04:41:05;;;;;;;;;;;;;;;9.03;100.00;101636.16;5058930;28;19952;-67
2023/04/29 04:43:30;;;;;;;;;;;;;;;9.04;100.00;101643.13;5055465;28;19913;-67
2023/04/29 04:45:56;;;;;;;;;;;;;;;9.03;100.00;101647.59;5062309;28;19920;-67
2023/04/29 04:48:21;;;;;;;;;;;;;;;9.03;100.00;101644.94;5068012;28;19916;-67
2023/04/29 04:50:46;;;;;;;;;;;;;;;9.04;100.00;101659.03;5067946;28;20470;-67
2023/04/29 04:53:11;;;;;;;;;;;;;;;9.05;100.00;101666.00;5068697;28;19912;-68
2023/04/29 04:55:36;;;;;;;;;;;;;;;9.06;100.00;101678.25;5056504;28;19924;-67
2023/04/29 04:58:02;;;;;;;;;;;;;;;9.06;99.98;101675.63;5055762;28;20485;-67
2023/04/29 05:00:27;;;;;;;;;;;;;;;9.06;100.00;101681.75;5060543;28;19921;-67
2023/04/29 05:02:52;;;;;;;;;;;;;;;9.08;100.00;101681.59;5066108;28;19962;-67
2023/04/29 05:05:17;;;;;;;;;;;;;;;9.10;99.89;101687.59;5064093;28;19921;-66
2023/04/29 05:07:42;;;;;;;;;;;;;;;9.13;99.89;101695.28;5062999;28;20504;-67
2023/04/29 05:10:08;;;;;;;;;;;;;;;9.15;100.00;101688.84;5064553;28;19921;-67
2023/04/29 05:12:34;;;;;;;;;;;;;;;9.18;100.00;101698.34;5067311;28;19917;-66
2023/04/29 05:14:59;;;;;;;;;;;;;;;9.17;100.00;101692.19;5066094;28;20396;-67
2023/04/29 05:17:24;;;;;;;;;;;;;;;9.19;100.00;101697.34;5067186;28;19977;-67
2023/04/29 05:19:50;;;;;;;;;;;;;;;9.17;100.00;101699.31;5071174;28;19927;-67
2023/04/29 05:22:15;;;;;;;;;;;;;;;9.17;100.00;101699.31;5064204;28;19917;-66
2023/04/29 05:24:40;;;;;;;;;;;;;;;9.17;99.91;101701.97;5058315;28;20018;-67
2023/04/29 05:27:05;;;;;;;;;;;;;;;9.16;100.00;101698.47;5056832;28;20405;-67
2023/04/29 05:29:31;;;;;;;;;;;;;;;9.18;99.89;101704.47;5063071;28;19928;-67
2023/04/29 05:31:56;;;;;;;;;;;;;;;9.19;99.90;101714.09;5060371;28;20267;-66
2023/04/29 05:34:21;;;;;;;;;;;;;;;9.19;99.98;101719.38;5063985;28;20380;-67
2023/04/29 05:36:46;;;;;;;;;;;;;;;9.17;100.00;101708.09;5064846;28;20591;-66
2023/04/29 05:39:12;;;;;;;;;;;;;;;9.18;99.97;101715.06;5065829;28;19923;-66
2023/04/29 05:41:37;;;;;;;;;;;;;;;9.18;99.91;101715.06;5050520;28;19917;-67
2023/04/29 05:44:02;;;;;;;;;;;;;;;9.18;99.76;101717.72;5057570;28;19916;-66
2023/04/29 05:46:27;;;;;;;;;;;;;;;9.18;99.87;101720.38;5056320;28;19927;-67
2023/04/29 05:48:52;;;;;;;;;;;;;;;9.17;99.91;101726.66;5062170;28;19923;-67
2023/04/29 05:51:18;;;;;;;;;;;;;;;9.18;99.97;101725.66;5065608;28;20427;-67
2023/04/29 05:53:43;;;;;;;;;;;;;;;9.18;99.87;101740.72;5066364;28;19916;-66
2023/04/29 05:56:08;;;;;;;;;;;;;;;9.17;99.90;101733.75;5065358;28;19970;-66
2023/04/29 05:58:34;;;;;;;;;;;;;;;9.17;99.79;101733.75;5064897;28;19920;-66
2023/04/29 06:00:59;;;;;;;;;;;;;;;9.18;99.46;101738.91;5054131;28;19917;-66
2023/04/29 06:03:24;;;;;;;;;;;;;;;9.18;99.74;101741.56;5059840;28;19923;-67
2023/04/29 06:05:49;;;;;;;;;;;;;;;9.19;99.56;101750.34;5055667;28;20500;-67
2023/04/29 06:08:15;;;;;;;;;;;;;;;9.22;99.78;101755.38;5060646;28;19916;-67
2023/04/29 06:10:40;;;;;;;;;;;;;;;9.24;99.31;101750.78;5061235;28;19920;-67
2023/04/29 06:13:05;;;;;;;;;;;;;;;9.28;99.39;101760.97;5053928;28;19963;-68
2023/04/29 06:15:30;;;;;;;;;;;;;;;9.34;99.37;101759.56;5063684;28;20008;-67
2023/04/29 06:17:55;;;;;;;;;;;;;;;9.39;99.88;101757.34;5066371;28;19921;-67
2023/04/29 06:20:20;;;;;;;;;;;;;;;9.45;99.77;101772.69;5071098;28;19936;-69
2023/04/29 06:22:46;;;;;;;;;;;;;;;9.50;99.83;101767.78;5054865;28;19917;-70
2023/04/29 06:25:12;;;;;;;;;;;;;;;9.59;99.98;101782.03;5059764;28;19926;-68
2023/04/29 06:27:37;;;;;;;;;;;;;;;9.64;99.60;101771.84;5057654;28;20425;-68
2023/04/29 06:30:03;;;;;;;;;;;;;;;9.69;99.70;101771.41;5062835;28;20003;-68
2023/04/29 06:32:28;;;;;;;;;;;;;;;9.73;99.46;101781.59;5051636;28;19920;-69
2023/04/29 06:34:53;;;;;;;;;;;;;;;9.78;99.66;101782.00;5053817;28;20024;-69
2023/04/29 06:37:18;;;;;;;;;;;;;;;9.84;99.67;101783.25;5059932;28;19923;-70
2023/04/29 06:39:44;;;;;;;;;;;;;;;9.88;99.41;101788.13;5058463;28;20521;-69
2023/04/29 06:42:09;;;;;;;;;;;;;;;9.92;99.29;101794.00;5060530;28;19949;-68
2023/04/29 06:44:34;;;;;;;;;;;;;;;9.93;99.53;101800.97;5065427;28;19917;-68
2023/04/29 06:46:59;;;;;;;;;;;;;;;9.95;99.13;101804.31;5057010;28;20050;-69
2023/04/29 06:49:25;;;;;;;;;;;;;;;9.97;99.23;101806.81;5065506;28;19943;-69
2023/04/29 06:51:50;;;;;;;;;;;;;;;9.98;98.95;101813.81;5062464;28;19920;-68
2023/04/29 06:54:15;;;;;;;;;;;;;;;9.99;98.64;101815.47;5061770;28;19998;-68
2023/04/29 06:56:41;;;;;;;;;;;;;;;10.01;98.65;101814.34;5063601;28;20439;-68
2023/04/29 06:59:06;;;;;;;;;;;;;;;10.04;98.26;101823.84;5067387;28;19916;-69
2023/04/29 07:01:31;;;;;;;;;;;;;;;10.05;98.20;101826.34;5059174;28;19917;-69
2023/04/29 07:03:56;;;;;;;;;;;;;;;10.08;97.87;101831.38;5064387;28;19917;-69
2023/04/29 07:06:22;;;;;;;;;;;;;;;10.11;97.76;101832.91;5057322;28;19967;-69
2023/04/29 07:08:47;;;;;;;;;;;;;;;10.14;97.89;101830.81;5061736;28;20362;-68
2023/04/29 07:11:12;;;;;;;;;;;;;;;10.18;97.69;101834.84;5064231;28;19962;-69
2023/04/29 07:13:37;;;;;;;;;;;;;;;10.26;97.57;101838.63;5067981;28;19939;-68
2023/04/29 07:16:03;;;;;;;;;;;;;;;10.34;97.50;101847.53;5067244;28;20465;-68
2023/04/29 07:18:28;;;;;;;;;;;;;;;10.41;97.75;101847.84;5060369;28;19917;-69
2023/04/29 07:20:54;;;;;;;;;;;;;;;10.47;97.31;101852.56;5065370;28;19925;-69
2023/04/29 07:23:19;;;;;;;;;;;;;;;10.50;97.11;101846.94;5064021;28;20281;-69
2023/04/29 07:25:44;;;;;;;;;;;;;;;10.57;96.90;101856.00;5070483;28;20375;-69
2023/04/29 07:28:10;;;;;;;;;;;;;;;10.62;96.88;101851.09;5062223;28;20015;-69
2023/04/29 07:30:35;;;;;;;;;;;;;;;10.65;96.76;101856.09;5066089;28;20452;-68
2023/04/29 07:33:00;;;;;;;;;;;;;;;10.70;96.51;101856.53;5063105;28;20003;-68
2023/04/29 07:35:26;;;;;;;;;;;;;;;10.76;96.85;101863.06;5062805;28;19967;-69
2023/04/29 07:37:51;;;;;;;;;;;;;;;10.84;96.48;101866.66;5061456;28;19919;-68
2023/04/29 07:40:16;;;;;;;;;;;;;;;10.94;96.43;101863.94;5066356;28;19943;-69
2023/04/29 07:42:42;;;;;;;;;;;;;;;11.03;96.59;101855.09;5070484;28;19923;-69
2023/04/29 07:45:07;;;;;;;;;;;;;;;11.08;95.98;101863.47;5070283;28;19923;-68
2023/04/29 07:47:32;;;;;;;;;;;;;;;11.13;95.54;101860.34;5069373;28;19913;-68
2023/04/29 07:49:57;;;;;;;;;;;;;;;11.18;95.22;101863.41;5067604;28;20388;-69
2023/04/29 07:52:23;;;;;;;;;;;;;;;11.23;94.97;101862.94;5066852;28;19919;-69
2023/04/29 07:54:48;;;;;;;;;;;;;;;11.31;94.72;101868.38;5062493;28;19921;-69
2023/04/29 07:57:13;;;;;;;;;;;;;;;11.38;94.61;101875.59;5061522;28;19913;-69
2023/04/29 07:59:38;;;;;;;;;;;;;;;11.45;94.80;101878.47;5066628;28;20027;-70
2023/04/29 08:02:03;;;;;;;;;;;;;;;11.54;94.67;101874.91;5065457;28;19917;-69
2023/04/29 08:04:29;;;;;;;;;;;;;;;11.62;94.16;101867.03;5062033;28;19987;-68
2023/04/29 08:06:54;;;;;;;;;;;;;;;11.70;94.23;101882.22;5069700;28;19913;-68
2023/04/29 08:09:20;;;;;;;;;;;;;;;11.72;93.84;101880.22;5068452;28;19913;-69
2023/04/29 08:11:45;;;;;;;;;;;;;;;11.72;93.17;101883.72;5055527;28;20366;-69
2023/04/29 08:14:12;;;;;;;;;;;;;;;11.71;93.15;101891.88;5067927;28;21280;-68
2023/04/29 08:16:37;;;;;;;;;;;;;;;11.70;92.57;101887.53;5066896;28;19919;-68
2023/04/29 08:19:02;;;;;;;;;;;;;;;11.67;92.25;101894.00;5074092;28;20000;-68
2023/04/29 08:21:28;;;;;;;;;;;;;;;11.64;91.91;101896.13;5071161;28;20913;-68
2023/04/29 08:23:54;;;;;;;;;;;;;;;11.57;91.79;101903.88;5057237;28;20007;-68
2023/04/29 08:26:19;;;;;;;;;;;;;;;11.57;91.69;101903.06;5062648;28;19917;-68
2023/04/29 08:28:45;;;;;;;;;;;;;;;11.58;91.51;101899.41;5063569;28;20285;-69
2023/04/29 08:31:17;;;;;;;;;;;;;;;11.65;91.15;101900.47;5061090;28;19913;-68
2023/04/29 08:33:42;;;;;;;;;;;;;;;11.74;91.58;101903.03;5062829;28;20024;-68
2023/04/29 08:36:07;;;;;;;;;;;;;;;11.84;91.59;101908.31;5067808;28;20393;-68
2023/04/29 08:38:33;;;;;;;;;;;;;;;11.91;91.63;101906.72;5070494;28;20004;-68
2023/04/29 08:40:58;;;;;;;;;;;;;;;11.98;91.10;101905.13;5068513;28;20435;-68
2023/04/29 08:43:23;;;;;;;;;;;;;;;12.09;90.61;101906.69;5064156;28;19992;-69
2023/04/29 08:45:48;;;;;;;;;;;;;;;12.15;90.01;101908.75;5055587;28;20440;-68
2023/04/29 08:48:15;;;;;;;;;;;;;;;12.21;89.63;101913.47;5061559;28;19948;-69
2023/04/29 08:50:40;;;;;;;;;;;;;;;12.31;89.33;101916.84;5068618;28;19916;-69
2023/04/29 08:53:06;;;;;;;;;;;;;;;12.48;89.23;101915.16;5062547;28;19925;-68
2023/04/29 08:55:34;;;;;;;;;;;;;;;12.74;89.29;101916.97;5068209;28;19913;-68
2023/04/29 08:58:00;;;;;;;;;;;;;;;12.97;88.70;101916.25;5067972;28;21121;-68
2023/04/29 09:00:26;;;;;;;;;;;;;;;13.13;88.30;101925.31;5056462;28;20413;-68
2023/04/29 09:02:52;;;;;;;;;;;;;;;13.22;87.27;101921.72;5061971;28;20000;-68
2023/04/29 09:05:18;;;;;;;;;;;;;;;13.23;86.97;101920.72;5056561;28;20412;-68
2023/04/29 09:07:44;;;;;;;;;;;;;;;13.29;86.48;101928.91;5058602;28;19917;-68
2023/04/29 09:10:10;;;;;;;;;;;;;;;13.35;85.71;101924.78;5064239;28;19919;-69
2023/04/29 09:12:35;;;;;;;;;;;;;;;13.43;85.30;101919.44;5064614;28;19920;-69
2023/04/29 09:15:01;;;;;;;;;;;;;;;13.52;84.27;101925.63;5068822;28;20302;-68
2023/04/29 09:17:39;;;;;;;;;;;;;;;13.67;84.17;101926.69;5063180;28;20458;-68
2023/04/29 09:20:20;;;;;;;;;;;;;;;13.95;83.56;101919.22;5069011;28;19925;-68
2023/04/29 09:22:53;;;;;;;;;;;;;;;14.14;81.35;101931.38;5058122;28;19920;-69
2023/04/29 09:25:18;;;;;;;;;;;;;;;14.21;79.83;101930.56;5067572;28;19977;-68
2023/04/29 09:27:44;;;;;;;;;;;;;;;14.29;80.18;101932.41;5063366;28;20016;-69
2023/04/29 09:30:09;;;;;;;;;;;;;;;14.47;80.51;101935.75;5057039;28;19913;-69
2023/04/29 09:32:35;;;;;;;;;;;;;;;14.68;79.62;101934.38;5068001;28;20489;-69
2023/04/29 09:35:19;;;;;;;;;;;;;;;14.80;78.96;101944.53;5055858;28;19935;-68
2023/04/29 09:37:44;;;;;;;;;;;;;;;14.90;78.11;101936.31;5063039;28;19995;-69
2023/04/29 09:40:26;;;;;;;;;;;;;;;14.95;77.29;101947.31;5068997;28;20015;-69
2023/04/29 09:42:51;;;;;;;;;;;;;;;14.98;77.09;101941.63;5054656;28;20358;-69
2023/04/29 09:45:31;;;;;;;;;;;;;;;14.90;76.49;101943.50;5065693;28;20010;-69
2023/04/29 09:48:02;;;;;;;;;;;;;;;14.93;76.01;101940.47;5066006;28;19959;-69
2023/04/29 09:50:28;;;;;;;;;;;;;;;15.01;74.93;101943.13;5064401;28;19939;-69
2023/04/29 09:52:53;;;;;;;;;;;;;;;15.08;74.78;101942.28;5054807;28;19917;-68
2023/04/29 09:55:18;;;;;;;;;;;;;;;15.29;73.52;101940.84;5062169;28;19962;-68
2023/04/29 09:57:44;;;;;;;;;;;;;;;15.50;73.65;101951.78;5066807;28;19916;-68
2023/04/29 10:00:10;;;;;;;;;;;;;;;15.60;72.40;101952.41;5054701;28;19913;-69
2023/04/29 10:02:40;;;;;;;;;;;;;;;15.64;72.08;101953.75;5068600;28;20317;-68
2023/04/29 10:05:05;;;;;;;;;;;;;;;15.69;70.82;101959.41;5060497;28;19915;-68
2023/04/29 10:07:31;;;;;;;;;;;;;;;15.75;69.35;101952.50;5051560;28;19917;-68
2023/04/29 10:09:56;;;;;;;;;;;;;;;15.73;69.58;101955.38;5055423;28;19928;-69
2023/04/29 10:12:22;;;;;;;;;;;;;;;15.62;69.23;101954.94;5062461;28;20033;-69
2023/04/29 10:14:56;;;;;;;;;;;;;;;15.52;68.55;101960.47;5063835;28;19920;-69
2023/04/29 10:17:26;;;;;;;;;;;;;;;15.55;68.57;101968.16;5060693;28;20465;-69
2023/04/29 10:19:57;;;;;;;;;;;;;;;15.62;68.80;101968.34;5068582;28;20334;-69
2023/04/29 10:22:28;;;;;;;;;;;;;;;15.62;68.58;101971.00;5063377;28;19965;-69
2023/04/29 10:24:54;;;;;;;;;;;;;;;15.47;68.56;101973.56;5065326;28;19923;-69
2023/04/29 10:27:20;;;;;;;;;;;;;;;15.27;68.97;101986.50;5066264;28;19916;-69
2023/04/29 10:29:47;;;;;;;;;;;;;;;15.10;68.43;101980.41;5064724;28;19916;-69
2023/04/29 10:32:13;;;;;;;;;;;;;;;14.98;69.10;101976.41;5068271;28;19951;-69
2023/04/29 10:34:41;;;;;;;;;;;;;;;14.94;69.75;101979.59;5065485;28;19959;-69
2023/04/29 10:37:10;;;;;;;;;;;;;;;14.98;69.63;101979.09;5054020;28;19916;-69
2023/04/29 10:39:42;;;;;;;;;;;;;;;14.99;69.79;101980.75;5054373;28;19913;-69
2023/04/29 10:42:15;;;;;;;;;;;;;;;14.98;69.84;101978.25;5064382;28;20007;-69
2023/04/29 10:44:59;;;;;;;;;;;;;;;14.94;70.00;101984.94;5068193;28;19916;-69
2023/04/29 10:47:24;;;;;;;;;;;;;;;14.86;69.17;101989.31;5056586;28;19920;-69
2023/04/29 10:50:03;;;;;;;;;;;;;;;14.84;69.56;101985.97;5063036;28;20298;-69
2023/04/29 10:52:28;;;;;;;;;;;;;;;14.86;69.51;101988.50;5061257;28;20044;-69
2023/04/29 10:55:03;;;;;;;;;;;;;;;14.92;69.50;101981.63;5063793;28;20018;-69
2023/04/29 10:57:28;;;;;;;;;;;;;;;15.02;69.98;101982.25;5063752;28;20050;-69
2023/04/29 10:59:54;;;;;;;;;;;;;;;15.10;69.78;101988.44;5066282;28;20003;-70
2023/04/29 11:02:19;;;;;;;;;;;;;;;15.18;69.89;101983.03;5060248;28;20362;-69
2023/04/29 11:05:03;;;;;;;;;;;;;;;15.21;69.37;101989.88;5060841;28;20285;-69
2023/04/29 11:07:28;;;;;;;;;;;;;;;15.23;69.42;101987.88;5067137;28;19932;-69
2023/04/29 11:09:54;;;;;;;;;;;;;;;15.26;69.42;101990.19;5066555;28;19916;-70
2023/04/29 11:12:20;;;;;;;;;;;;;;;15.33;69.48;101985.00;5068148;28;20002;-70
2023/04/29 11:14:49;;;;;;;;;;;;;;;15.40;69.04;101988.66;5059741;28;20464;-69
2023/04/29 11:17:15;;;;;;;;;;;;;;;15.44;69.18;102001.50;5068057;28;20293;-70
2023/04/29 11:19:41;;;;;;;;;;;;;;;15.48;68.71;101991.28;5065911;28;19963;-70
2023/04/29 11:22:08;;;;;;;;;;;;;;;15.46;67.43;101993.31;5060779;28;19965;-70
2023/04/29 11:24:35;;;;;;;;;;;;;;;15.44;67.88;101993.47;5079260;28;19917;-70
2023/04/29 11:27:03;;;;;;;;;;;;;;;15.52;67.56;101989.09;5060905;28;19917;-70
2023/04/29 11:29:30;;;;;;;;;;;;;;;15.62;67.92;101987.91;5055684;28;19923;-69
2023/04/29 11:31:59;;;;;;;;;;;;;;;15.76;68.05;101984.47;5061868;28;19923;-69
2023/04/29 11:34:25;;;;;;;;;;;;;;;15.87;66.44;101979.72;5060817;28;19924;-67
2023/04/29 11:36:50;;;;;;;;;;;;;;;16.03;66.48;101974.25;5069742;28;19912;-67
2023/04/29 11:39:15;;;;;;;;;;;;;;;16.20;66.25;101975.81;5059014;28;19917;-68
2023/04/29 11:41:41;;;;;;;;;;;;;;;16.35;66.00;101973.16;5063186;28;19923;-67
2023/04/29 11:44:08;;;;;;;;;;;;;;;16.43;64.83;101978.44;5068430;28;19986;-67
2023/04/29 11:46:33;;;;;;;;;;;;;;;16.51;64.75;101974.88;5065295;28;20371;-68
2023/04/29 11:48:59;;;;;;;;;;;;;;;16.52;64.36;101977.38;5063152;28;19970;-68
2023/04/29 11:51:24;;;;;;;;;;;;;;;16.46;63.36;101979.91;5056352;28;19921;-68
2023/04/29 11:53:50;;;;;;;;;;;;;;;16.57;64.04;101982.19;5069910;28;19978;-67
2023/04/29 11:56:15;;;;;;;;;;;;;;;16.69;63.80;101983.44;5063955;28;19916;-68
2023/04/29 11:58:40;;;;;;;;;;;;;;;16.76;63.04;101979.00;5059513;28;19916;-67
2023/04/29 12:01:06;;;;;;;;;;;;;;;17.04;62.81;101984.56;5063721;28;20153;-67
2023/04/29 12:03:32;;;;;;;;;;;;;;;17.23;62.39;101994.75;5059426;28;19917;-66
2023/04/29 12:05:57;;;;;;;;;;;;;;;17.35;61.93;101987.06;5056877;28;20343;-67
2023/04/29 12:08:27;;;;;;;;;;;;;;;17.44;61.68;101985.94;5058351;28;19965;-68
2023/04/29 12:10:53;;;;;;;;;;;;;;;17.49;61.26;101985.38;5065498;28;19977;-67
2023/04/29 12:13:19;;;;;;;;;;;;;;;17.50;60.79;101985.19;5058331;28;19931;-68
2023/04/29 12:15:45;;;;;;;;;;;;;;;17.45;60.45;101986.78;5063997;28;19917;-68
2023/04/29 12:18:11;;;;;;;;;;;;;;;17.34;60.09;101982.69;5060171;28;19923;-67
2023/04/29 12:20:38;;;;;;;;;;;;;;;17.31;60.36;101977.69;5064989;28;19928;-67
2023/04/29 12:23:21;;;;;;;;;;;;;;;17.46;60.56;101980.38;5064220;28;19944;-68
2023/04/29 12:25:50;;;;;;;;;;;;;;;17.59;60.04;101975.97;5059276;28;20566;-68
2023/04/29 12:28:16;;;;;;;;;;;;;;;17.72;59.60;101983.41;5064702;28;19917;-68
2023/04/29 12:30:45;;;;;;;;;;;;;;;17.83;58.66;101987.44;5059601;28;19974;-67
2023/04/29 12:33:14;;;;;;;;;;;;;;;17.80;57.35;101985.97;5059906;28;19924;-68